createdAt,value
2022-08-24T00:02:05.147Z,21.59
2022-08-24T00:04:32.432Z,21.73
2022-08-24T00:07:00.007Z,21.69
2022-08-24T00:09:26.639Z,21.47
2022-08-24T00:11:53.196Z,21.64
2022-08-24T00:14:19.725Z,21.54
2022-08-24T00:16:46.844Z,21.53
2022-08-24T00:19:13.472Z,21.47
2022-08-24T00:21:39.997Z,21.39
2022-08-24T00:24:06.575Z,21.36
2022-08-24T00:26:35.152Z,21.29
2022-08-24T00:29:06.831Z,21.24
2022-08-24T00:31:34.310Z,21.18
2022-08-24T00:34:01.063Z,21.11
2022-08-24T00:36:27.701Z,21.08
2022-08-24T00:38:54.282Z,21.04
2022-08-24T00:41:20.810Z,21.02
2022-08-24T00:43:55.518Z,20.98
2022-08-24T00:46:30.942Z,20.93
2022-08-24T00:49:23.962Z,20.84
2022-08-24T00:52:10.276Z,20.91
2022-08-24T00:54:45.950Z,20.84
2022-08-24T00:57:17.212Z,20.75
2022-08-24T00:59:48.023Z,20.77
2022-08-24T01:02:19.691Z,20.73
2022-08-24T01:04:54.647Z,20.67
2022-08-24T01:07:24.620Z,20.61
2022-08-24T01:09:56.542Z,20.57
2022-08-24T01:12:25.280Z,20.45
2022-08-24T01:14:52.098Z,20.47
2022-08-24T01:17:39.206Z,20.40
2022-08-24T01:20:08.609Z,20.33
2022-08-24T01:22:47.612Z,20.19
2022-08-24T01:25:14.106Z,20.29
2022-08-24T01:27:41.938Z,20.24
2022-08-24T01:30:13.559Z,20.12
2022-08-24T01:32:41.559Z,20.19
2022-08-24T01:35:09.195Z,20.12
2022-08-24T01:37:36.153Z,20.15
2022-08-24T01:40:07.304Z,20.18
2022-08-24T01:42:34.938Z,20.28
2022-08-24T01:45:02.814Z,20.13
2022-08-24T01:47:29.241Z,20.14
2022-08-24T01:49:55.713Z,20.16
2022-08-24T01:52:25.987Z,20.13
2022-08-24T01:54:53.101Z,20.15
2022-08-24T01:57:23.478Z,20.17
2022-08-24T01:59:49.946Z,20.19
2022-08-24T02:02:24.424Z,20.18
2022-08-24T02:04:50.892Z,20.18
2022-08-24T02:07:18.389Z,20.06
2022-08-24T02:09:45.049Z,20.09
2022-08-24T02:12:12.086Z,20.12
2022-08-24T02:14:38.556Z,20.12
2022-08-24T02:17:07.378Z,20.09
2022-08-24T02:19:34.367Z,20.09
2022-08-24T02:22:01.332Z,20.01
2022-08-24T02:24:29.116Z,20.04
2022-08-24T02:26:56.380Z,20.05
2022-08-24T02:29:22.988Z,20.03
2022-08-24T02:31:49.606Z,19.92
2022-08-24T02:34:16.587Z,19.98
2022-08-24T02:36:43.256Z,19.94
2022-08-24T02:39:10.148Z,19.89
2022-08-24T02:41:37.646Z,19.90
2022-08-24T02:44:05.180Z,19.85
2022-08-24T02:46:31.707Z,19.78
2022-08-24T02:49:10.153Z,19.82
2022-08-24T02:51:43.881Z,19.91
2022-08-24T02:54:13.287Z,19.82
2022-08-24T02:56:39.756Z,19.75
2022-08-24T02:59:06.438Z,19.75
2022-08-24T03:01:32.948Z,19.72
2022-08-24T03:03:59.526Z,19.75
2022-08-24T03:06:26.023Z,19.68
2022-08-24T03:08:54.709Z,19.78
2022-08-24T03:11:27.930Z,19.81
2022-08-24T03:13:56.078Z,19.79
2022-08-24T03:16:22.919Z,19.82
2022-08-24T03:18:49.617Z,19.83
2022-08-24T03:21:16.260Z,19.85
2022-08-24T03:23:43.034Z,19.84
2022-08-24T03:26:10.391Z,19.84
2022-08-24T03:28:36.890Z,19.86
2022-08-24T03:31:04.047Z,19.87
2022-08-24T03:33:31.117Z,19.87
2022-08-24T03:35:57.710Z,19.76
2022-08-24T03:38:24.359Z,19.84
2022-08-24T03:40:50.818Z,19.71
2022-08-24T03:43:36.703Z,19.81
2022-08-24T03:46:07.414Z,19.78
2022-08-24T03:48:34.489Z,19.70
2022-08-24T03:51:01.452Z,19.66
2022-08-24T03:53:27.902Z,19.57
2022-08-24T03:55:54.361Z,19.49
2022-08-24T03:58:20.827Z,19.42
2022-08-24T04:00:47.346Z,19.37
2022-08-24T04:03:14.202Z,19.45
2022-08-24T04:05:42.325Z,19.39
2022-08-24T04:08:09.637Z,19.28
2022-08-24T04:10:36.539Z,19.29
2022-08-24T04:13:03.109Z,19.23
2022-08-24T04:15:31.690Z,19.21
2022-08-24T04:17:58.566Z,19.17
2022-08-24T04:20:25.808Z,19.12
2022-08-24T04:22:53.580Z,19.07
2022-08-24T04:25:24.692Z,19.02
2022-08-24T04:27:51.905Z,18.98
2022-08-24T04:30:18.623Z,18.95
2022-08-24T04:32:45.313Z,18.90
2022-08-24T04:35:12.609Z,18.90
2022-08-24T04:37:39.023Z,18.88
2022-08-24T04:40:08.048Z,18.87
2022-08-24T04:42:34.955Z,18.83
2022-08-24T04:45:01.469Z,18.87
2022-08-24T04:47:28.007Z,18.80
2022-08-24T04:49:54.474Z,18.84
2022-08-24T04:52:21.046Z,18.91
2022-08-24T04:54:47.571Z,18.90
2022-08-24T04:57:17.904Z,18.89
2022-08-24T04:59:44.946Z,18.98
2022-08-24T05:02:11.486Z,19.00
2022-08-24T05:04:38.255Z,19.04
2022-08-24T05:07:05.607Z,19.08
2022-08-24T05:09:32.286Z,19.11
2022-08-24T05:11:58.773Z,19.09
2022-08-24T05:14:28.825Z,19.16
2022-08-24T05:16:55.828Z,19.21
2022-08-24T05:19:23.770Z,19.23
2022-08-24T05:21:50.797Z,19.27
2022-08-24T05:24:18.344Z,19.33
2022-08-24T05:26:45.426Z,19.37
2022-08-24T05:29:11.908Z,19.26
2022-08-24T05:31:38.502Z,19.43
2022-08-24T05:34:05.648Z,19.41
2022-08-24T05:36:38.068Z,19.56
2022-08-24T05:39:11.374Z,19.62
2022-08-24T05:41:44.234Z,19.68
2022-08-24T05:44:12.204Z,19.75
2022-08-24T05:46:38.623Z,19.82
2022-08-24T05:49:05.633Z,19.95
2022-08-24T05:51:32.277Z,20.07
2022-08-24T05:53:59.293Z,20.17
2022-08-24T05:56:31.295Z,20.14
2022-08-24T05:58:58.429Z,20.23
2022-08-24T06:01:27.067Z,20.41
2022-08-24T06:03:55.005Z,20.48
2022-08-24T06:06:23.079Z,20.55
2022-08-24T06:08:53.043Z,20.60
2022-08-24T06:11:24.731Z,20.67
2022-08-24T06:14:07.278Z,20.71
2022-08-24T06:16:36.510Z,20.79
2022-08-24T06:19:04.380Z,20.82
2022-08-24T06:21:31.725Z,20.89
2022-08-24T06:23:59.395Z,20.87
2022-08-24T06:26:50.208Z,20.99
2022-08-24T06:29:17.971Z,21.13
2022-08-24T06:31:46.554Z,21.22
2022-08-24T06:34:15.162Z,21.29
2022-08-24T06:36:42.000Z,21.31
2022-08-24T06:39:10.229Z,21.48
2022-08-24T06:41:40.508Z,21.56
2022-08-24T06:44:07.703Z,21.79
2022-08-24T06:46:36.398Z,21.76
2022-08-24T06:49:03.400Z,21.84
2022-08-24T06:51:30.193Z,21.94
2022-08-24T06:53:56.691Z,22.03
2022-08-24T06:56:23.230Z,22.12
2022-08-24T06:58:50.200Z,22.27
2022-08-24T07:01:19.562Z,22.45
2022-08-24T07:03:46.575Z,22.59
2022-08-24T07:06:14.287Z,22.74
2022-08-24T07:08:42.465Z,22.88
2022-08-24T07:11:10.097Z,22.96
2022-08-24T07:13:36.627Z,23.08
2022-08-24T07:16:04.719Z,23.22
2022-08-24T07:18:31.310Z,23.32
2022-08-24T07:21:00.399Z,23.40
2022-08-24T07:23:41.799Z,23.47
2022-08-24T07:26:21.655Z,23.54
2022-08-24T07:28:51.478Z,23.67
2022-08-24T07:31:17.986Z,23.71
2022-08-24T07:33:45.078Z,23.66
2022-08-24T07:36:11.534Z,23.87
2022-08-24T07:38:46.576Z,23.83
2022-08-24T07:41:38.206Z,24.06
2022-08-24T07:44:00.838Z,24.16
2022-08-24T07:46:27.285Z,24.23
2022-08-24T07:49:04.975Z,24.34
2022-08-24T07:51:44.813Z,24.47
2022-08-24T07:54:13.489Z,24.63
2022-08-24T07:56:41.840Z,24.74
2022-08-24T07:59:12.444Z,24.83
2022-08-24T08:01:40.596Z,24.86
2022-08-24T08:04:07.812Z,25.02
2022-08-24T08:06:34.525Z,25.01
2022-08-24T08:09:02.562Z,25.12
2022-08-24T08:11:28.978Z,25.20
2022-08-24T08:13:55.438Z,25.23
2022-08-24T08:16:21.973Z,25.30
2022-08-24T08:18:52.420Z,25.35
2022-08-24T08:21:51.047Z,25.43
2022-08-24T08:24:20.455Z,25.60
2022-08-24T08:26:52.799Z,25.74
2022-08-24T08:29:20.230Z,25.80
2022-08-24T08:31:46.818Z,25.73
2022-08-24T08:34:13.665Z,26.08
2022-08-24T08:36:41.041Z,26.21
2022-08-24T08:39:09.818Z,26.21
2022-08-24T08:41:46.816Z,26.50
2022-08-24T08:44:21.016Z,26.55
2022-08-24T08:46:50.297Z,26.66
2022-08-24T08:49:38.342Z,26.82
2022-08-24T08:52:31.032Z,26.81
2022-08-24T08:55:03.702Z,26.90
2022-08-24T08:58:00.379Z,27.01
2022-08-24T09:00:53.912Z,27.10
2022-08-24T09:04:08.349Z,27.25
2022-08-24T09:07:00.956Z,27.41
2022-08-24T09:09:48.493Z,27.59
2022-08-24T09:12:31.380Z,27.69
2022-08-24T09:15:06.411Z,27.76
2022-08-24T09:17:32.806Z,27.91
2022-08-24T09:20:24.237Z,28.08
2022-08-24T09:23:02.022Z,28.14
2022-08-24T09:25:47.997Z,28.46
2022-08-24T09:28:32.800Z,28.75
2022-08-24T09:31:26.217Z,29.24
2022-08-24T09:34:06.490Z,29.55
2022-08-24T09:36:59.390Z,30.11
2022-08-24T09:39:31.909Z,30.37
2022-08-24T09:42:01.060Z,30.70
2022-08-24T09:44:30.566Z,31.00
2022-08-24T09:47:15.622Z,31.57
2022-08-24T09:50:06.719Z,31.58
2022-08-24T09:52:57.910Z,31.91
2022-08-24T09:55:58.934Z,32.32
2022-08-24T09:58:34.327Z,32.58
2022-08-24T10:01:41.742Z,32.90
2022-08-24T10:04:36.651Z,32.95
2022-08-24T10:07:12.364Z,33.06
2022-08-24T10:10:23.360Z,33.16
2022-08-24T10:13:04.865Z,33.30
2022-08-24T10:15:46.966Z,33.40
2022-08-24T10:18:47.421Z,33.46
2022-08-24T10:21:26.818Z,33.50
2022-08-24T10:24:31.410Z,33.43
2022-08-24T10:27:09.382Z,33.54
2022-08-24T10:30:09.983Z,33.76
2022-08-24T10:33:09.025Z,33.84
2022-08-24T10:35:46.270Z,33.86
2022-08-24T10:38:53.465Z,34.02
2022-08-24T10:41:44.088Z,34.12
2022-08-24T10:44:31.965Z,34.16
2022-08-24T10:47:01.123Z,34.20
2022-08-24T10:49:48.561Z,34.49
2022-08-24T10:52:42.974Z,34.54
2022-08-24T10:55:22.423Z,34.83
2022-08-24T10:58:10.887Z,34.92
2022-08-24T11:00:37.676Z,34.85
2022-08-24T11:03:14.357Z,34.99
2022-08-24T11:05:50.148Z,35.05
2022-08-24T11:08:19.921Z,35.03
2022-08-24T11:11:02.766Z,34.98
2022-08-24T11:13:29.454Z,35.04
2022-08-24T11:15:59.262Z,35.07
2022-08-24T11:18:26.922Z,34.91
2022-08-24T11:20:55.381Z,35.07
2022-08-24T11:23:34.443Z,35.26
2022-08-24T11:26:13.320Z,35.52
2022-08-24T11:28:50.660Z,35.52
2022-08-24T11:31:27.609Z,35.59
2022-08-24T11:34:04.692Z,35.57
2022-08-24T11:36:36.211Z,35.71
2022-08-24T11:39:11.466Z,35.73
2022-08-24T11:41:47.402Z,35.84
2022-08-24T11:44:49.924Z,35.97
2022-08-24T11:47:30.364Z,35.93
2022-08-24T11:50:08.528Z,35.90
2022-08-24T11:53:11.141Z,35.90
2022-08-24T11:56:00.702Z,35.94
2022-08-24T11:58:45.898Z,36.01
2022-08-24T12:01:19.301Z,35.97
2022-08-24T12:04:03.791Z,36.07
2022-08-24T12:06:50.431Z,36.02
2022-08-24T12:09:37.123Z,36.19
2022-08-24T12:12:14.698Z,36.23
2022-08-24T12:14:56.528Z,36.12
2022-08-24T12:17:30.675Z,36.26
2022-08-24T12:20:09.424Z,36.32
2022-08-24T12:22:36.327Z,36.32
2022-08-24T12:25:24.876Z,36.38
2022-08-24T12:27:54.065Z,36.44
2022-08-24T12:30:20.659Z,36.42
2022-08-24T12:32:58.079Z,36.58
2022-08-24T12:35:29.822Z,36.54
2022-08-24T12:38:15.401Z,36.73
2022-08-24T12:41:14.559Z,36.82
2022-08-24T12:43:51.787Z,36.78
2022-08-24T12:46:22.795Z,36.82
2022-08-24T12:48:59.730Z,36.86
2022-08-24T12:51:34.730Z,36.95
2022-08-24T12:54:23.083Z,37.01
2022-08-24T12:57:29.806Z,36.64
2022-08-24T13:00:03.531Z,36.68
2022-08-24T13:02:39.575Z,36.99
2022-08-24T13:05:18.629Z,36.88
2022-08-24T13:07:48.809Z,36.82
2022-08-24T13:10:37.803Z,37.00
2022-08-24T13:13:04.141Z,36.93
2022-08-24T13:15:30.564Z,36.93
2022-08-24T13:18:03.327Z,36.95
2022-08-24T13:20:50.160Z,36.98
2022-08-24T13:23:24.944Z,37.12
2022-08-24T13:25:58.772Z,37.17
2022-08-24T13:28:25.414Z,37.20
2022-08-24T13:31:22.606Z,37.32
2022-08-24T13:33:55.277Z,37.24
2022-08-24T13:36:30.929Z,37.21
2022-08-24T13:39:06.210Z,37.07
2022-08-24T13:41:55.417Z,37.28
2022-08-24T13:44:43.740Z,37.18
2022-08-24T13:47:25.958Z,37.23
2022-08-24T13:50:14.905Z,37.19
2022-08-24T13:52:50.401Z,37.21
2022-08-24T13:55:35.101Z,37.15
2022-08-24T13:58:26.913Z,37.11
2022-08-24T14:01:01.462Z,37.02
2022-08-24T14:03:53.845Z,37.23
2022-08-24T14:06:32.133Z,37.21
2022-08-24T14:09:16.593Z,37.21
2022-08-24T14:12:15.334Z,37.39
2022-08-24T14:15:12.976Z,37.41
2022-08-24T14:18:01.048Z,37.31
2022-08-24T14:21:00.365Z,37.45
2022-08-24T14:23:47.112Z,37.28
2022-08-24T14:26:38.699Z,37.27
2022-08-24T14:29:20.075Z,37.14
2022-08-24T14:31:59.986Z,37.07
2022-08-24T14:34:53.447Z,37.12
2022-08-24T14:37:23.771Z,37.03
2022-08-24T14:40:17.151Z,37.09
2022-08-24T14:42:56.070Z,37.13
2022-08-24T14:45:52.546Z,37.35
2022-08-24T14:48:56.777Z,37.41
2022-08-24T14:51:29.277Z,37.35
2022-08-24T14:54:32.732Z,37.49
2022-08-24T14:57:16.062Z,37.41
2022-08-24T14:59:42.581Z,37.40
2022-08-24T15:02:31.893Z,37.41
2022-08-24T15:05:23.527Z,37.45
2022-08-24T15:08:09.000Z,37.34
2022-08-24T15:10:52.992Z,37.26
2022-08-24T15:13:40.540Z,37.14
2022-08-24T15:16:18.779Z,36.99
2022-08-24T15:19:02.793Z,37.08
2022-08-24T15:21:56.811Z,36.97
2022-08-24T15:24:39.797Z,37.00
2022-08-24T15:27:18.635Z,36.90
2022-08-24T15:29:54.982Z,36.55
2022-08-24T15:32:28.008Z,36.82
2022-08-24T15:34:58.335Z,36.83
2022-08-24T15:37:37.415Z,36.95
2022-08-24T15:40:16.654Z,36.70
2022-08-24T15:42:43.374Z,37.33
2022-08-24T15:45:10.729Z,36.94
2022-08-24T15:47:45.693Z,36.91
2022-08-24T15:50:39.666Z,36.94
2022-08-24T15:53:28.354Z,36.97
2022-08-24T15:55:55.638Z,36.64
2022-08-24T15:58:38.905Z,36.73
2022-08-24T16:01:30.041Z,36.62
2022-08-24T16:04:05.164Z,36.48
2022-08-24T16:06:31.525Z,36.33
2022-08-24T16:09:13.082Z,36.31
2022-08-24T16:11:51.339Z,36.22
2022-08-24T16:14:46.885Z,36.18
2022-08-24T16:17:27.663Z,36.06
2022-08-24T16:19:58.488Z,35.99
2022-08-24T16:22:32.961Z,36.00
2022-08-24T16:25:13.061Z,35.96
2022-08-24T16:27:58.950Z,35.97
2022-08-24T16:31:01.013Z,36.02
2022-08-24T16:33:39.915Z,35.62
2022-08-24T16:36:17.710Z,35.58
2022-08-24T16:38:49.657Z,35.66
2022-08-24T16:41:19.234Z,35.54
2022-08-24T16:43:46.435Z,35.48
2022-08-24T16:46:18.093Z,35.41
2022-08-24T16:48:44.629Z,35.32
2022-08-24T16:51:11.069Z,35.19
2022-08-24T16:53:37.597Z,35.09
2022-08-24T16:56:04.728Z,35.05
2022-08-24T16:58:34.092Z,34.95
2022-08-24T17:01:01.709Z,34.82
2022-08-24T17:03:28.714Z,34.77
2022-08-24T17:05:56.164Z,34.66
2022-08-24T17:08:23.114Z,34.65
2022-08-24T17:10:49.654Z,34.43
2022-08-24T17:13:33.049Z,34.40
2022-08-24T17:16:03.714Z,34.34
2022-08-24T17:18:30.383Z,34.15
2022-08-24T17:20:58.325Z,34.03
2022-08-24T17:23:24.909Z,33.93
2022-08-24T17:25:51.416Z,33.73
2022-08-24T17:28:20.456Z,33.58
2022-08-24T17:30:50.937Z,33.32
2022-08-24T17:33:18.766Z,33.22
2022-08-24T17:35:45.573Z,33.06
2022-08-24T17:38:12.153Z,32.90
2022-08-24T17:40:38.582Z,32.73
2022-08-24T17:43:05.518Z,32.58
2022-08-24T17:45:32.150Z,32.41
2022-08-24T17:47:58.666Z,32.27
2022-08-24T17:50:25.244Z,32.04
2022-08-24T17:52:59.080Z,31.92
2022-08-24T17:55:27.936Z,31.71
2022-08-24T17:57:54.635Z,31.47
2022-08-24T18:00:21.283Z,31.38
2022-08-24T18:02:47.715Z,31.16
2022-08-24T18:05:14.877Z,30.91
2022-08-24T18:07:53.555Z,30.65
2022-08-24T18:10:25.351Z,30.41
2022-08-24T18:12:53.108Z,30.13
2022-08-24T18:15:19.634Z,29.86
2022-08-24T18:17:51.487Z,29.61
2022-08-24T18:20:24.774Z,29.29
2022-08-24T18:23:03.217Z,28.98
2022-08-24T18:25:35.795Z,28.82
2022-08-24T18:28:02.665Z,28.52
2022-08-24T18:30:30.937Z,28.33
2022-08-24T18:33:01.656Z,28.09
2022-08-24T18:35:30.711Z,27.86
2022-08-24T18:37:57.298Z,27.72
2022-08-24T18:40:24.319Z,27.51
2022-08-24T18:42:51.072Z,27.34
2022-08-24T18:45:17.994Z,27.17
2022-08-24T18:47:44.507Z,27.02
2022-08-24T18:50:21.118Z,26.85
2022-08-24T18:52:47.799Z,26.71
2022-08-24T18:55:15.068Z,26.54
2022-08-24T18:57:41.563Z,26.48
2022-08-24T19:00:10.253Z,26.35
2022-08-24T19:02:36.986Z,26.22
2022-08-24T19:05:13.064Z,26.13
2022-08-24T19:07:44.402Z,26.03
2022-08-24T19:10:14.617Z,25.92
2022-08-24T19:12:51.509Z,25.79
2022-08-24T19:15:35.709Z,25.69
2022-08-24T19:18:05.967Z,25.60
2022-08-24T19:20:34.200Z,25.52
2022-08-24T19:23:08.431Z,25.43
2022-08-24T19:25:36.265Z,25.34
2022-08-24T19:28:04.198Z,25.23
2022-08-24T19:30:31.091Z,25.11
2022-08-24T19:32:58.453Z,25.06
2022-08-24T19:35:24.946Z,24.81
2022-08-24T19:37:51.590Z,24.91
2022-08-24T19:40:20.891Z,24.85
2022-08-24T19:42:50.951Z,24.78
2022-08-24T19:45:41.242Z,24.62
2022-08-24T19:48:08.206Z,24.58
2022-08-24T19:50:35.984Z,24.51
2022-08-24T19:53:04.032Z,24.44
2022-08-24T19:55:30.902Z,24.37
2022-08-24T19:58:18.689Z,24.32
2022-08-24T20:00:51.485Z,24.24
2022-08-24T20:03:18.754Z,24.13
2022-08-24T20:05:45.829Z,24.07
2022-08-24T20:08:12.995Z,23.99
2022-08-24T20:10:39.665Z,23.81
2022-08-24T20:13:06.459Z,23.91
2022-08-24T20:15:33.517Z,23.79
2022-08-24T20:18:00.338Z,23.78
2022-08-24T20:20:27.918Z,23.66
2022-08-24T20:22:54.980Z,23.64
2022-08-24T20:25:21.545Z,23.58
2022-08-24T20:27:48.989Z,23.52
2022-08-24T20:30:17.973Z,23.48
2022-08-24T20:32:44.438Z,23.43
2022-08-24T20:35:14.979Z,23.31
2022-08-24T20:37:42.216Z,23.20
2022-08-24T20:40:12.952Z,23.25
2022-08-24T20:42:41.467Z,23.21
2022-08-24T20:45:10.430Z,23.18
2022-08-24T20:47:50.198Z,23.07
2022-08-24T20:50:24.543Z,23.09
2022-08-24T20:52:52.987Z,22.98
2022-08-24T20:55:21.743Z,22.95
2022-08-24T20:57:51.692Z,22.90
2022-08-24T21:00:20.485Z,22.85
2022-08-24T21:02:47.334Z,22.80
2022-08-24T21:05:14.200Z,22.75
2022-08-24T21:07:47.578Z,22.57
2022-08-24T21:10:14.103Z,22.65
2022-08-24T21:12:40.583Z,22.59
2022-08-24T21:15:10.799Z,22.54
2022-08-24T21:17:37.303Z,22.48
2022-08-24T21:20:04.250Z,22.42
2022-08-24T21:22:30.716Z,22.32
2022-08-24T21:24:57.212Z,22.33
2022-08-24T21:27:24.229Z,22.29
2022-08-24T21:29:50.697Z,22.22
2022-08-24T21:32:35.860Z,22.22
2022-08-24T21:35:02.478Z,22.17
2022-08-24T21:37:29.654Z,22.10
2022-08-24T21:39:57.201Z,22.06
2022-08-24T21:42:23.748Z,22.03
2022-08-24T21:44:50.305Z,22.00
2022-08-24T21:47:17.454Z,21.94
2022-08-24T21:49:43.985Z,21.90
2022-08-24T21:52:10.414Z,21.87
2022-08-24T21:54:36.906Z,21.85
2022-08-24T21:57:05.861Z,21.79
2022-08-24T21:59:34.092Z,21.74
2022-08-24T22:02:01.582Z,21.69
2022-08-24T22:04:28.062Z,21.68
2022-08-24T22:06:54.552Z,21.51
2022-08-24T22:09:22.432Z,21.61
2022-08-24T22:11:50.027Z,21.52
2022-08-24T22:14:16.762Z,21.34
2022-08-24T22:16:44.764Z,21.39
2022-08-24T22:19:12.169Z,21.41
2022-08-24T22:21:45.897Z,21.38
2022-08-24T22:24:14.192Z,21.36
2022-08-24T22:26:41.505Z,21.24
2022-08-24T22:29:09.814Z,21.29
2022-08-24T22:31:39.746Z,21.26
2022-08-24T22:34:10.348Z,21.21
2022-08-24T22:36:37.668Z,21.20
2022-08-24T22:39:04.889Z,21.16
2022-08-24T22:41:32.008Z,21.14
2022-08-24T22:44:17.566Z,20.94
2022-08-24T22:46:44.413Z,20.92
2022-08-24T22:49:11.581Z,21.08
2022-08-24T22:51:38.359Z,21.08
2022-08-24T22:54:05.148Z,21.07
2022-08-24T22:56:43.979Z,20.99
2022-08-24T22:59:16.504Z,21.06
2022-08-24T23:01:45.411Z,21.03
2022-08-24T23:04:15.893Z,21.03
2022-08-24T23:06:42.786Z,21.02
2022-08-24T23:09:09.922Z,21.02
2022-08-24T23:11:37.286Z,20.93
2022-08-24T23:14:07.203Z,21.04
2022-08-24T23:16:36.454Z,21.04
2022-08-24T23:19:22.312Z,21.06
2022-08-24T23:21:49.160Z,21.08
2022-08-24T23:24:15.794Z,21.06
2022-08-24T23:26:43.182Z,21.11
2022-08-24T23:29:12.643Z,21.12
2022-08-24T23:31:40.220Z,21.17
2022-08-24T23:34:08.038Z,21.18
2022-08-24T23:36:35.397Z,21.19
2022-08-24T23:39:02.682Z,21.21
2022-08-24T23:41:32.643Z,21.24
2022-08-24T23:44:10.914Z,21.26
2022-08-24T23:46:38.370Z,21.17
2022-08-24T23:49:05.595Z,21.26
2022-08-24T23:51:32.123Z,21.21
2022-08-24T23:53:59.031Z,21.20
2022-08-24T23:56:32.075Z,21.28
2022-08-24T23:59:01.016Z,21.28
